Theodore, Alabama
Current Conditions -  °F | °C
As of 1:53 AM on Friday 31 Oct 2014 (Local Time) from KBFM Reporting Station
Clear Clear  
Wind Chill:   Ceiling: Unl
Heat Index:   Visibility: 10mi
Dew Point:   Wind: 3mph
Humidity: 86%   Direction: 300°WNW
Pressure: 30.03"   Gusts: NA
Location:  30.55°N, 88.18°W
Report Text: KBFM 310653Z AUTO 30003KT 10SM CLR 08/06 A3003 RMK AO2 SLP170 T00830061
Loading
Personal Weather Stations






























Interactive Weather Map
Tropical Storm Tracking
New forecast layout! Learn more

10-Day Weather Forecast

Advertisements
Track Severe Weather on mobile